createdAt,value
2023-01-01T00:01:24.381Z,43.30
2023-01-01T00:03:54.114Z,59.90
2023-01-01T00:06:22.714Z,62.50
2023-01-01T00:09:10.743Z,55.30
2023-01-01T00:11:38.748Z,54.00
2023-01-01T00:14:12.223Z,60.30
2023-01-01T00:16:41.340Z,56.60
2023-01-01T00:19:09.618Z,68.70
2023-01-01T00:21:37.643Z,65.20
2023-01-01T00:24:07.000Z,68.80
2023-01-01T00:26:35.784Z,65.90
2023-01-01T00:31:32.952Z,62.50
2023-01-01T00:34:01.154Z,61.80
2023-01-01T00:36:30.045Z,53.00
2023-01-01T00:41:25.933Z,53.80
2023-01-01T00:43:54.030Z,61.80
2023-01-01T00:46:22.139Z,58.50
2023-01-01T00:48:50.193Z,64.00
2023-01-01T00:51:18.274Z,65.80
2023-01-01T00:53:46.289Z,55.30
2023-01-01T00:56:14.253Z,54.20
2023-01-01T00:58:42.368Z,56.90
2023-01-01T01:01:10.653Z,50.40
2023-01-01T01:03:39.865Z,50.10
2023-01-01T01:06:11.331Z,56.30
2023-01-01T01:08:42.746Z,39.90
2023-01-01T01:11:23.841Z,35.10
2023-01-01T01:13:54.850Z,46.50
2023-01-01T01:16:30.002Z,45.70
2023-01-01T01:19:00.839Z,54.80
2023-01-01T01:21:31.759Z,42.30
2023-01-01T01:24:01.592Z,42.30
2023-01-01T01:26:32.542Z,34.20
2023-01-01T01:29:00.999Z,32.70
2023-01-01T01:31:32.248Z,33.70
2023-01-01T01:34:01.096Z,38.50
2023-01-01T01:36:29.769Z,41.30
2023-01-01T01:41:29.014Z,31.20
2023-01-01T01:44:25.462Z,31.10
2023-01-01T01:46:54.045Z,36.00
2023-01-01T01:49:28.262Z,37.90
2023-01-01T01:51:56.891Z,44.10
2023-01-01T01:54:28.061Z,42.60
2023-01-01T01:57:02.757Z,48.00
2023-01-01T01:59:36.103Z,39.50
2023-01-01T02:02:10.167Z,40.20
2023-01-01T02:04:38.773Z,44.20
2023-01-01T02:07:07.870Z,43.60
2023-01-01T02:09:35.872Z,46.50
2023-01-01T02:12:04.028Z,46.30
2023-01-01T02:14:33.734Z,44.00
2023-01-01T02:17:13.405Z,44.40
2023-01-01T02:20:01.479Z,40.10
2023-01-01T02:22:38.058Z,55.20
2023-01-01T02:26:10.840Z,49.60
2023-01-01T02:29:06.707Z,52.40
2023-01-01T02:31:43.618Z,50.10
2023-01-01T02:34:16.496Z,62.30
2023-01-01T02:36:50.382Z,50.00
2023-01-01T02:39:22.561Z,55.80
2023-01-01T02:41:54.854Z,48.00
2023-01-01T02:44:25.265Z,41.70
2023-01-01T02:46:53.832Z,53.40
2023-01-01T02:49:21.820Z,45.40
2023-01-01T02:52:18.625Z,42.90
2023-01-01T02:55:10.285Z,40.40
2023-01-01T02:57:51.239Z,45.30
2023-01-01T03:00:27.628Z,45.30
2023-01-01T03:03:09.308Z,42.60
2023-01-01T03:06:22.734Z,38.50
2023-01-01T03:09:06.215Z,44.20
2023-01-01T03:11:44.401Z,46.60
2023-01-01T03:14:46.181Z,42.70
2023-01-01T03:17:19.998Z,29.90
2023-01-01T03:19:51.048Z,30.90
2023-01-01T03:22:21.688Z,34.00
2023-01-01T03:24:56.489Z,34.70
2023-01-01T03:27:30.861Z,39.80
2023-01-01T03:30:03.333Z,41.00
2023-01-01T03:33:01.321Z,41.80
2023-01-01T03:35:54.076Z,33.30
2023-01-01T03:38:26.856Z,31.10
2023-01-01T03:41:03.255Z,36.80
2023-01-01T03:43:54.185Z,36.20
2023-01-01T03:46:29.429Z,34.80
2023-01-01T03:49:03.365Z,31.10
2023-01-01T03:52:00.127Z,33.50
2023-01-01T03:54:41.279Z,29.90
2023-01-01T03:57:32.530Z,36.30
2023-01-01T04:00:19.604Z,34.70
2023-01-01T04:02:59.616Z,29.70
2023-01-01T04:05:30.049Z,30.90
2023-01-01T04:08:02.077Z,31.80
2023-01-01T04:10:33.460Z,29.60
2023-01-01T04:13:05.133Z,31.30
2023-01-01T04:15:34.328Z,35.80
2023-01-01T04:18:03.263Z,29.30
2023-01-01T04:20:31.831Z,40.40
2023-01-01T04:23:01.552Z,41.60
2023-01-01T04:25:30.301Z,38.70
2023-01-01T04:28:03.516Z,44.60
2023-01-01T04:30:31.658Z,36.30
2023-01-01T04:32:59.728Z,37.20
2023-01-01T04:35:27.702Z,34.80
2023-01-01T04:37:55.687Z,37.80
2023-01-01T04:40:23.711Z,36.90
2023-01-01T04:42:54.124Z,38.50
2023-01-01T04:45:22.696Z,25.70
2023-01-01T04:47:50.783Z,23.80
2023-01-01T04:50:18.852Z,31.10
2023-01-01T04:52:51.342Z,34.80
2023-01-01T04:55:20.543Z,34.00
2023-01-01T04:57:48.663Z,31.60
2023-01-01T05:00:17.509Z,32.40
2023-01-01T05:05:13.721Z,31.70
2023-01-01T05:07:41.875Z,39.80
2023-01-01T05:10:10.074Z,31.50
2023-01-01T05:12:38.104Z,35.20
2023-01-01T05:15:07.033Z,41.40
2023-01-01T05:20:04.958Z,43.60
2023-01-01T05:22:32.926Z,41.80
2023-01-01T05:25:01.038Z,34.80
2023-01-01T05:27:28.982Z,47.30
2023-01-01T05:29:57.032Z,36.40
2023-01-01T05:32:25.171Z,40.00
2023-01-01T05:34:53.530Z,34.10
2023-01-01T05:37:21.715Z,29.00
2023-01-01T05:39:49.702Z,35.70
2023-01-01T05:42:19.024Z,40.60
2023-01-01T05:44:47.067Z,34.30
2023-01-01T05:47:17.626Z,34.30
2023-01-01T05:49:45.812Z,37.30
2023-01-01T05:52:13.836Z,36.20
2023-01-01T05:54:41.926Z,33.10
2023-01-01T05:57:10.054Z,46.50
2023-01-01T05:59:38.018Z,38.30
2023-01-01T06:02:06.195Z,32.10
2023-01-01T06:04:34.357Z,30.90
2023-01-01T06:07:02.395Z,40.10
2023-01-01T06:09:30.480Z,47.20
2023-01-01T06:11:58.501Z,39.70
2023-01-01T06:14:26.459Z,41.00
2023-01-01T06:16:54.559Z,41.10
2023-01-01T06:19:22.575Z,42.70
2023-01-01T06:21:50.834Z,44.30
2023-01-01T06:24:18.875Z,45.80
2023-01-01T06:26:46.896Z,43.40
2023-01-01T06:29:14.952Z,33.60
2023-01-01T06:31:43.340Z,31.20
2023-01-01T06:34:11.391Z,36.10
2023-01-01T06:36:39.516Z,35.90
2023-01-01T06:39:07.905Z,34.60
2023-01-01T06:41:35.906Z,36.70
2023-01-01T06:44:04.159Z,34.60
2023-01-01T06:46:35.632Z,42.10
2023-01-01T06:49:11.436Z,42.10
2023-01-01T06:51:41.549Z,35.10
2023-01-01T06:54:10.790Z,40.50
2023-01-01T06:56:39.388Z,33.80
2023-01-01T06:59:07.545Z,33.10
2023-01-01T07:01:37.629Z,28.60
2023-01-01T07:04:08.811Z,36.00
2023-01-01T07:06:37.666Z,34.00
2023-01-01T07:09:07.236Z,35.60
2023-01-01T07:11:36.337Z,44.90
2023-01-01T07:14:04.377Z,51.10
2023-01-01T07:16:32.461Z,50.30
2023-01-01T07:19:01.420Z,63.40
2023-01-01T07:21:39.907Z,38.50
2023-01-01T07:24:11.283Z,31.40
2023-01-01T07:26:41.070Z,35.00
2023-01-01T07:29:09.381Z,36.80
2023-01-01T07:31:42.534Z,55.70
2023-01-01T07:34:15.008Z,59.40
2023-01-01T07:36:43.203Z,49.50
2023-01-01T07:41:39.691Z,41.90
2023-01-01T07:44:07.874Z,40.90
2023-01-01T07:46:37.164Z,55.30
2023-01-01T07:49:05.719Z,59.00
2023-01-01T07:51:33.826Z,63.60
2023-01-01T07:54:06.517Z,57.80
2023-01-01T07:56:36.228Z,48.80
2023-01-01T07:59:05.564Z,65.30
2023-01-01T08:01:36.754Z,59.60
2023-01-01T08:04:05.894Z,40.30
2023-01-01T08:06:33.844Z,44.70
2023-01-01T08:09:01.865Z,50.10
2023-01-01T08:11:29.969Z,40.70
2023-01-01T08:13:57.947Z,53.30
2023-01-01T08:16:25.968Z,54.90
2023-01-01T08:18:54.323Z,49.20
2023-01-01T08:21:22.462Z,52.40
2023-01-01T08:23:50.472Z,45.60
2023-01-01T08:26:30.624Z,55.30
2023-01-01T08:28:59.301Z,47.40
2023-01-01T08:31:27.327Z,45.50
2023-01-01T08:33:55.332Z,50.30
2023-01-01T08:36:23.567Z,43.80
2023-01-01T08:38:51.746Z,41.10
2023-01-01T08:41:19.814Z,27.60
2023-01-01T08:43:47.869Z,21.00
2023-01-01T08:46:16.406Z,19.60
2023-01-01T08:48:44.520Z,17.00
2023-01-01T08:51:13.129Z,20.50
2023-01-01T08:53:44.196Z,19.50
2023-01-01T08:56:16.895Z,17.70
2023-01-01T08:58:44.996Z,23.00
2023-01-01T09:01:13.111Z,23.30
2023-01-01T09:03:41.279Z,22.20
2023-01-01T09:06:09.378Z,17.90
2023-01-01T09:08:37.425Z,18.70
2023-01-01T09:11:05.881Z,20.90
2023-01-01T09:13:34.440Z,19.40
2023-01-01T09:16:02.521Z,21.40
2023-01-01T09:18:32.819Z,21.10
2023-01-01T09:21:00.803Z,20.90
2023-01-01T09:23:28.772Z,22.50
2023-01-01T09:25:58.321Z,23.30
2023-01-01T09:28:27.222Z,21.70
2023-01-01T09:30:55.305Z,19.20
2023-01-01T09:33:23.386Z,22.20
2023-01-01T09:35:51.428Z,21.30
2023-01-01T09:38:19.680Z,23.30
2023-01-01T09:40:54.533Z,19.90
2023-01-01T09:43:40.798Z,20.40
2023-01-01T09:46:11.342Z,23.60
2023-01-01T09:48:46.042Z,24.20
2023-01-01T09:51:17.833Z,30.80
2023-01-01T09:53:58.307Z,23.90
2023-01-01T09:56:29.184Z,20.20
2023-01-01T09:58:59.437Z,20.40
2023-01-01T10:01:39.829Z,17.20
2023-01-01T10:04:33.201Z,15.80
2023-01-01T10:07:16.315Z,15.70
2023-01-01T10:10:20.779Z,16.10
2023-01-01T10:12:54.743Z,18.80
2023-01-01T10:15:32.091Z,19.60
2023-01-01T10:18:09.819Z,17.70
2023-01-01T10:21:03.073Z,19.10
2023-01-01T10:23:59.337Z,18.50
2023-01-01T10:26:30.477Z,19.00
2023-01-01T10:29:19.442Z,19.10
2023-01-01T10:31:47.631Z,19.80
2023-01-01T10:34:19.812Z,22.40
2023-01-01T10:36:49.679Z,20.50
2023-01-01T10:39:18.733Z,21.60
2023-01-01T10:41:47.673Z,23.50
2023-01-01T10:44:22.989Z,19.70
2023-01-01T10:46:57.403Z,19.60
2023-01-01T10:49:25.490Z,17.80
2023-01-01T10:51:56.116Z,22.80
2023-01-01T10:54:33.321Z,16.30
2023-01-01T10:57:29.627Z,15.70
2023-01-01T11:00:27.400Z,15.90
2023-01-01T11:03:20.040Z,14.10
2023-01-01T11:06:14.818Z,13.20
2023-01-01T11:08:50.054Z,16.60
2023-01-01T11:11:26.676Z,17.70
2023-01-01T11:13:58.466Z,16.20
2023-01-01T11:16:28.898Z,15.40
2023-01-01T11:19:06.505Z,17.60
2023-01-01T11:21:35.840Z,14.50
2023-01-01T11:24:18.037Z,17.20
2023-01-01T11:26:52.202Z,14.80
2023-01-01T11:29:28.042Z,16.10
2023-01-01T11:31:58.812Z,14.30
2023-01-01T11:34:26.804Z,16.70
2023-01-01T11:37:26.695Z,15.20
2023-01-01T11:39:58.090Z,18.30
2023-01-01T11:42:33.113Z,16.50
2023-01-01T11:45:19.524Z,14.80
2023-01-01T11:47:53.809Z,15.70
2023-01-01T11:50:41.116Z,15.60
2023-01-01T11:53:24.763Z,16.80
2023-01-01T11:56:02.262Z,15.50
2023-01-01T11:58:36.107Z,17.00
2023-01-01T12:01:21.448Z,16.60
2023-01-01T12:04:09.799Z,9.90
2023-01-01T12:06:45.064Z,15.00
2023-01-01T12:09:21.061Z,15.50
2023-01-01T12:12:00.453Z,19.30
2023-01-01T12:14:50.698Z,18.20
2023-01-01T12:17:19.183Z,17.80
2023-01-01T12:19:59.290Z,17.60
2023-01-01T12:22:27.956Z,24.20
2023-01-01T12:27:43.892Z,25.90
2023-01-01T12:30:21.033Z,22.80
2023-01-01T12:33:07.766Z,20.50
2023-01-01T12:35:39.537Z,93.20
2023-01-01T12:38:40.283Z,25.10
2023-01-01T12:41:31.960Z,23.70
2023-01-01T12:44:18.662Z,23.90
2023-01-01T12:46:52.824Z,25.50
2023-01-01T12:49:30.136Z,29.10
2023-01-01T12:52:01.398Z,22.70
2023-01-01T12:54:56.814Z,23.10
2023-01-01T12:57:48.951Z,16.80
2023-01-01T13:00:20.159Z,23.00
2023-01-01T13:02:55.592Z,22.80
2023-01-01T13:05:29.690Z,23.40
2023-01-01T13:08:01.526Z,20.60
2023-01-01T13:10:43.555Z,19.70
2023-01-01T13:13:14.033Z,22.90
2023-01-01T13:15:43.427Z,24.60
2023-01-01T13:18:14.663Z,20.60
2023-01-01T13:20:46.738Z,20.00
2023-01-01T13:23:44.858Z,19.80
2023-01-01T13:26:18.953Z,21.80
2023-01-01T13:28:58.092Z,28.20
2023-01-01T13:31:38.593Z,25.00
2023-01-01T13:34:41.148Z,23.60
2023-01-01T13:37:15.138Z,27.60
2023-01-01T13:40:00.160Z,33.40
2023-01-01T13:42:53.006Z,33.80
2023-01-01T13:46:10.373Z,36.30
2023-01-01T13:48:28.479Z,32.30
2023-01-01T13:51:33.882Z,24.00
2023-01-01T13:54:34.205Z,26.90
2023-01-01T13:57:15.462Z,34.00
2023-01-01T13:59:52.763Z,36.10
2023-01-01T14:02:23.158Z,34.70
2023-01-01T14:05:00.463Z,36.20
2023-01-01T14:07:52.857Z,45.70
2023-01-01T14:10:30.475Z,46.10
2023-01-01T14:13:08.595Z,45.60
2023-01-01T14:15:39.845Z,42.50
2023-01-01T14:18:16.840Z,50.20
2023-01-01T14:20:49.028Z,43.10
2023-01-01T14:23:20.548Z,40.20
2023-01-01T14:25:48.974Z,48.40
2023-01-01T14:28:24.202Z,50.20
2023-01-01T14:30:53.925Z,39.70
2023-01-01T14:33:30.512Z,39.60
2023-01-01T14:36:04.418Z,44.90
2023-01-01T14:38:35.272Z,62.70
2023-01-01T14:41:16.080Z,69.40
2023-01-01T14:43:46.512Z,64.00
2023-01-01T14:46:25.240Z,66.30
2023-01-01T14:48:58.183Z,53.50
2023-01-01T14:51:29.585Z,58.70
2023-01-01T14:54:03.672Z,68.10
2023-01-01T14:56:34.669Z,60.90
2023-01-01T14:59:14.388Z,63.50
2023-01-01T15:01:42.885Z,60.90
2023-01-01T15:04:23.129Z,56.20
2023-01-01T15:06:59.401Z,54.60
2023-01-01T15:09:30.465Z,65.20
2023-01-01T15:11:59.854Z,83.90
2023-01-01T15:14:38.738Z,73.90
2023-01-01T15:17:09.703Z,46.90
2023-01-01T15:19:41.316Z,60.70
2023-01-01T15:22:22.381Z,66.70
2023-01-01T15:24:51.595Z,102.10
2023-01-01T15:27:30.896Z,65.60
2023-01-01T15:29:59.732Z,92.30
2023-01-01T15:35:05.957Z,88.10
2023-01-01T15:37:57.765Z,82.90
2023-01-01T15:40:25.766Z,49.50
2023-01-01T15:42:56.949Z,48.50
2023-01-01T15:45:35.685Z,48.40
2023-01-01T15:50:56.728Z,58.40
2023-01-01T15:53:46.138Z,85.50
2023-01-01T15:56:15.491Z,119.20
2023-01-01T15:58:57.122Z,98.60
2023-01-01T16:01:29.993Z,84.20
2023-01-01T16:04:15.774Z,70.20
2023-01-01T16:06:50.059Z,94.50
2023-01-01T16:09:19.574Z,77.50
2023-01-01T16:11:56.004Z,127.90
2023-01-01T16:14:24.344Z,407.90
2023-01-01T16:17:00.828Z,150.60
2023-01-01T16:19:31.795Z,118.60
2023-01-01T16:21:59.875Z,119.80
2023-01-01T16:24:27.911Z,122.60
2023-01-01T16:26:56.051Z,104.40
2023-01-01T16:29:24.319Z,108.00
2023-01-01T16:31:52.549Z,114.50
2023-01-01T16:34:20.562Z,163.50
2023-01-01T16:36:50.004Z,166.10
2023-01-01T16:39:18.902Z,160.30
2023-01-01T16:41:46.906Z,155.50
2023-01-01T16:44:16.508Z,128.20
2023-01-01T16:46:44.692Z,127.60
2023-01-01T16:49:12.885Z,125.60
2023-01-01T16:51:44.111Z,117.70
2023-01-01T16:54:12.615Z,154.00
2023-01-01T16:56:40.722Z,131.00
2023-01-01T16:59:08.835Z,140.60
2023-01-01T17:01:37.037Z,133.70
2023-01-01T17:04:05.312Z,133.50
2023-01-01T17:06:33.408Z,124.60
2023-01-01T17:09:02.437Z,120.00
2023-01-01T17:16:38.544Z,133.70
2023-01-01T17:19:17.966Z,169.50
2023-01-01T17:21:47.879Z,162.80
2023-01-01T17:24:17.808Z,140.20
2023-01-01T17:26:50.008Z,123.50
2023-01-01T17:29:18.810Z,140.90
2023-01-01T17:31:47.001Z,129.00
2023-01-01T17:34:15.146Z,148.20
2023-01-01T17:36:45.354Z,126.30
2023-01-01T17:39:15.239Z,93.00
2023-01-01T17:41:44.389Z,99.90
2023-01-01T17:44:12.817Z,76.30
2023-01-01T17:46:40.983Z,62.40
2023-01-01T17:49:09.894Z,56.00
2023-01-01T17:51:39.618Z,52.40
2023-01-01T17:54:13.347Z,61.50
2023-01-01T17:56:41.865Z,75.30
2023-01-01T17:59:10.318Z,83.90
2023-01-01T18:01:38.660Z,66.10
2023-01-01T18:04:09.041Z,71.90
2023-01-01T18:06:42.684Z,88.90
2023-01-01T18:09:14.049Z,65.00
2023-01-01T18:11:43.680Z,64.10
2023-01-01T18:14:12.860Z,52.90
2023-01-01T18:16:44.025Z,53.90
2023-01-01T18:19:12.687Z,59.90
2023-01-01T18:21:40.828Z,55.70
2023-01-01T18:24:14.261Z,57.80
2023-01-01T18:26:42.622Z,55.30
2023-01-01T18:29:10.659Z,68.20
2023-01-01T18:31:38.676Z,89.80
2023-01-01T18:34:07.134Z,116.90
2023-01-01T18:36:35.355Z,119.20
2023-01-01T18:39:09.766Z,120.50
2023-01-01T18:41:46.577Z,114.80
2023-01-01T18:44:26.054Z,78.70
2023-01-01T18:46:54.759Z,64.60
2023-01-01T18:49:26.065Z,81.60
2023-01-01T18:52:12.909Z,73.70
2023-01-01T18:54:41.704Z,57.60
2023-01-01T18:57:26.962Z,50.10
2023-01-01T19:00:13.790Z,65.60
2023-01-01T19:03:02.666Z,61.10
2023-01-01T19:05:34.722Z,55.80
2023-01-01T19:08:12.997Z,48.50
2023-01-01T19:10:48.158Z,53.40
2023-01-01T19:13:24.007Z,51.40
2023-01-01T19:15:57.225Z,57.10
2023-01-01T19:18:29.514Z,67.30
2023-01-01T19:21:13.257Z,69.00
2023-01-01T19:23:48.987Z,65.30
2023-01-01T19:26:29.522Z,67.60
2023-01-01T19:29:02.309Z,63.10
2023-01-01T19:31:30.606Z,67.20
2023-01-01T19:33:58.761Z,54.50
2023-01-01T19:36:26.840Z,56.30
2023-01-01T19:38:54.877Z,54.00
2023-01-01T19:41:22.920Z,44.80
2023-01-01T19:43:51.026Z,47.20
2023-01-01T19:46:19.362Z,54.10
2023-01-01T19:48:49.287Z,44.20
2023-01-01T19:51:19.306Z,72.90
2023-01-01T19:53:47.307Z,69.00
2023-01-01T19:56:16.446Z,50.90
2023-01-01T19:58:45.832Z,52.90
2023-01-01T20:01:15.091Z,53.30
2023-01-01T20:03:54.030Z,51.10
2023-01-01T20:06:22.857Z,60.50
2023-01-01T20:08:50.841Z,62.20
2023-01-01T20:11:20.660Z,62.70
2023-01-01T20:13:48.775Z,56.10
2023-01-01T20:16:16.871Z,45.40
2023-01-01T20:18:45.830Z,59.50
2023-01-01T20:21:32.624Z,59.90
2023-01-01T20:24:00.879Z,52.50
2023-01-01T20:26:28.980Z,48.20
2023-01-01T20:29:15.576Z,44.30
2023-01-01T20:31:44.200Z,49.40
2023-01-01T20:34:12.652Z,36.50
2023-01-01T20:37:07.210Z,41.30
2023-01-01T20:42:07.171Z,53.20
2023-01-01T20:44:36.081Z,56.30
2023-01-01T20:47:04.410Z,55.80
2023-01-01T20:49:32.618Z,63.30
2023-01-01T20:52:01.082Z,42.20
2023-01-01T20:54:29.182Z,42.60
2023-01-01T20:56:57.618Z,46.70
2023-01-01T20:59:35.315Z,43.50
2023-01-01T21:02:09.604Z,45.00
2023-01-01T21:04:39.533Z,48.10
2023-01-01T21:07:12.519Z,59.20
2023-01-01T21:09:41.561Z,58.30
2023-01-01T21:12:10.654Z,61.60
2023-01-01T21:14:39.112Z,58.20
2023-01-01T21:17:21.156Z,43.70
2023-01-01T21:19:51.884Z,40.60
2023-01-01T21:22:19.952Z,38.60
2023-01-01T21:24:53.732Z,35.70
2023-01-01T21:27:29.481Z,32.70
2023-01-01T21:29:58.037Z,37.00
2023-01-01T21:32:41.167Z,37.10
2023-01-01T21:35:34.377Z,41.00
2023-01-01T21:38:16.119Z,39.40
2023-01-01T21:40:59.604Z,58.50
2023-01-01T21:43:27.796Z,51.90
2023-01-01T21:46:11.543Z,50.90
2023-01-01T21:48:46.684Z,49.70
2023-01-01T21:51:28.754Z,46.30
2023-01-01T21:54:14.853Z,43.70
2023-01-01T21:56:55.134Z,44.90
2023-01-01T21:59:32.688Z,35.30
2023-01-01T22:02:21.435Z,40.40
2023-01-01T22:04:50.733Z,45.90
2023-01-01T22:07:57.127Z,41.10
2023-01-01T22:10:25.210Z,39.30
2023-01-01T22:12:57.891Z,37.30
2023-01-01T22:15:26.034Z,31.80
2023-01-01T22:18:09.459Z,33.90
2023-01-01T22:20:39.261Z,32.00
2023-01-01T22:23:16.669Z,39.90
2023-01-01T22:25:44.773Z,40.80
2023-01-01T22:28:25.089Z,42.40
2023-01-01T22:30:57.695Z,42.30
2023-01-01T22:33:46.948Z,38.60
2023-01-01T22:36:23.043Z,32.10
2023-01-01T22:38:55.403Z,30.80
2023-01-01T22:41:23.594Z,34.30
2023-01-01T22:43:57.115Z,36.00
2023-01-01T22:46:33.932Z,35.50
2023-01-01T22:49:24.190Z,33.00
2023-01-01T22:51:54.972Z,33.00
2023-01-01T22:54:23.915Z,36.20
2023-01-01T22:56:52.093Z,26.00
2023-01-01T22:59:20.365Z,21.30
2023-01-01T23:01:48.571Z,25.80
2023-01-01T23:04:16.753Z,24.70
2023-01-01T23:06:44.959Z,31.50
2023-01-01T23:09:13.422Z,28.30
2023-01-01T23:11:41.507Z,29.50
2023-01-01T23:14:28.516Z,26.80
2023-01-01T23:16:56.694Z,26.70
2023-01-01T23:19:24.738Z,25.30
2023-01-01T23:21:53.109Z,35.20
2023-01-01T23:24:23.547Z,30.10
2023-01-01T23:26:53.276Z,30.60
2023-01-01T23:29:23.153Z,32.40
2023-01-01T23:31:51.275Z,26.80
2023-01-01T23:34:19.413Z,17.30
2023-01-01T23:36:49.894Z,14.70
2023-01-01T23:39:17.879Z,16.60
2023-01-01T23:41:45.912Z,19.50
2023-01-01T23:44:14.068Z,21.00
2023-01-01T23:46:42.299Z,23.70
2023-01-01T23:49:11.661Z,19.30
2023-01-01T23:51:39.963Z,19.30
2023-01-01T23:54:08.024Z,22.50
2023-01-01T23:56:36.361Z,22.60
2023-01-01T23:59:04.438Z,24.90
